EJU84KR LIRN-LEBL
Flight info
| Callsign | EJU84KR |
|---|---|
| Flight time | 1h 46m |
| Altitude | 35000 |
| Route | EDOPA DCT TAGEL DCT BETOT/N0438F360 DCT VAVAX DCT EPIKU DCT GINOX DCT KIFMI/N0398F280 DCT ELVOP DCT MUREN DCT CHELY/N0411F290 M601 VERSO |
| Aircraft | A319/M-SDE2E3FGIJ1RWXYZ/LB1 |
Departure
| Time | 2026-04-28 14:22 |
|---|---|
| Airport | Naples International Airport (LIRN) |
Arrival
| Time | 2026-04-28 16:09 |
|---|---|
| Airport | Josep Tarradellas Barcelona-El Prat Airport (LEBL) |
| Time | Latitude | Longitude | Altitude | Speed | Heading |
|---|---|---|---|---|---|
| 2026-04-28 13:27 | 40.87873 | 14.28342 | 292 ft | 0 kts | 187° |
| 2026-04-28 13:32 | 40.87874 | 14.28342 | 292 ft | 0 kts | 187° |
| 2026-04-28 13:48 | 40.87875 | 14.28342 | 292 ft | 0 kts | 187° |
| 2026-04-28 14:07 | 40.87876 | 14.28342 | 290 ft | 0 kts | 187° |
| 2026-04-28 14:07 | 40.87876 | 14.28343 | 290 ft | 0 kts | 187° |
| 2026-04-28 14:11 | 40.87877 | 14.28343 | 290 ft | 2 kts | 187° |
| 2026-04-28 14:11 | 40.87902 | 14.28347 | 290 ft | 4 kts | 185° |
| 2026-04-28 14:12 | 40.87928 | 14.28346 | 290 ft | 4 kts | 158° |
| 2026-04-28 14:12 | 40.87946 | 14.28327 | 293 ft | 3 kts | 102° |
| 2026-04-28 14:12 | 40.87947 | 14.28322 | 293 ft | 3 kts | 97° |
| 2026-04-28 14:15 | 40.87947 | 14.28321 | 293 ft | 0 kts | 97° |
| 2026-04-28 14:15 | 40.87947 | 14.28323 | 293 ft | 1 kts | 97° |
| 2026-04-28 14:16 | 40.87945 | 14.28342 | 294 ft | 3 kts | 97° |
| 2026-04-28 14:16 | 40.87941 | 14.28379 | 291 ft | 5 kts | 97° |
| 2026-04-28 14:16 | 40.87938 | 14.28437 | 288 ft | 7 kts | 85° |
| 2026-04-28 14:16 | 40.87974 | 14.28496 | 286 ft | 10 kts | 41° |
| 2026-04-28 14:17 | 40.88024 | 14.28569 | 284 ft | 12 kts | 52° |
| 2026-04-28 14:17 | 40.88080 | 14.28664 | 282 ft | 14 kts | 52° |
| 2026-04-28 14:17 | 40.88144 | 14.28776 | 279 ft | 17 kts | 53° |
| 2026-04-28 14:17 | 40.88213 | 14.28896 | 276 ft | 17 kts | 52° |
| 2026-04-28 14:18 | 40.88283 | 14.29016 | 273 ft | 18 kts | 52° |
| 2026-04-28 14:18 | 40.88362 | 14.29152 | 270 ft | 20 kts | 53° |
| 2026-04-28 14:18 | 40.88449 | 14.29305 | 266 ft | 22 kts | 53° |
| 2026-04-28 14:18 | 40.88530 | 14.29447 | 262 ft | 19 kts | 52° |
| 2026-04-28 14:19 | 40.88617 | 14.29596 | 258 ft | 22 kts | 52° |
| 2026-04-28 14:19 | 40.88714 | 14.29762 | 253 ft | 24 kts | 52° |
| 2026-04-28 14:19 | 40.88819 | 14.29945 | 247 ft | 26 kts | 52° |
| 2026-04-28 14:19 | 40.88915 | 14.30111 | 241 ft | 24 kts | 53° |
| 2026-04-28 14:20 | 40.89001 | 14.30259 | 238 ft | 19 kts | 53° |
| 2026-04-28 14:20 | 40.89060 | 14.30360 | 231 ft | 0 kts | 51° |
| 2026-04-28 14:20 | 40.89066 | 14.30369 | 231 ft | 3 kts | 51° |
| 2026-04-28 14:20 | 40.89092 | 14.30413 | 229 ft | 9 kts | 52° |
| 2026-04-28 14:21 | 40.89156 | 14.30447 | 227 ft | 11 kts | 348° |
| 2026-04-28 14:21 | 40.89196 | 14.30408 | 227 ft | 11 kts | 310° |
| 2026-04-28 14:21 | 40.89195 | 14.30331 | 229 ft | 0 kts | 240° |
| 2026-04-28 14:21 | 40.89194 | 14.30328 | 229 ft | 3 kts | 240° |
| 2026-04-28 14:22 | 40.88950 | 14.29815 | 247 ft | 95 kts | 237° |
| 2026-04-28 14:22 | 40.88488 | 14.28858 | 331 ft | 143 kts | 233° |
| 2026-04-28 14:22 | 40.88002 | 14.27732 | 896 ft | 141 kts | 237° |
| 2026-04-28 14:22 | 40.87297 | 14.26801 | 1396 ft | 148 kts | 207° |
| 2026-04-28 14:23 | 40.86597 | 14.26537 | 1645 ft | 165 kts | 184° |
| 2026-04-28 14:23 | 40.85393 | 14.26674 | 2012 ft | 186 kts | 174° |
| 2026-04-28 14:23 | 40.84077 | 14.26865 | 2636 ft | 192 kts | 174° |
| 2026-04-28 14:23 | 40.82729 | 14.27055 | 3364 ft | 192 kts | 174° |
| 2026-04-28 14:24 | 40.81412 | 14.27238 | 3880 ft | 194 kts | 174° |
| 2026-04-28 14:24 | 40.80071 | 14.27422 | 3989 ft | 192 kts | 174° |
| 2026-04-28 14:24 | 40.78749 | 14.27599 | 4010 ft | 190 kts | 174° |
| 2026-04-28 14:24 | 40.77434 | 14.27776 | 4006 ft | 190 kts | 174° |
| 2026-04-28 14:25 | 40.76116 | 14.27949 | 4004 ft | 191 kts | 174° |
| 2026-04-28 14:25 | 40.74786 | 14.28121 | 4005 ft | 193 kts | 174° |
| 2026-04-28 14:25 | 40.73451 | 14.28294 | 4005 ft | 193 kts | 174° |
| 2026-04-28 14:25 | 40.72116 | 14.28425 | 4001 ft | 192 kts | 182° |
| 2026-04-28 14:26 | 40.70819 | 14.28043 | 4009 ft | 194 kts | 202° |
| 2026-04-28 14:26 | 40.69647 | 14.27021 | 4017 ft | 208 kts | 220° |
| 2026-04-28 14:26 | 40.68539 | 14.25742 | 4123 ft | 218 kts | 219° |
| 2026-04-28 14:26 | 40.67379 | 14.24417 | 4687 ft | 228 kts | 220° |
| 2026-04-28 14:27 | 40.66129 | 14.22995 | 5071 ft | 253 kts | 220° |
| 2026-04-28 14:27 | 40.64757 | 14.21434 | 5761 ft | 266 kts | 220° |
| 2026-04-28 14:27 | 40.63341 | 14.19825 | 6656 ft | 271 kts | 220° |
| 2026-04-28 14:27 | 40.61904 | 14.18185 | 7553 ft | 275 kts | 220° |
| 2026-04-28 14:28 | 40.60448 | 14.16525 | 8459 ft | 279 kts | 221° |
| 2026-04-28 14:28 | 40.58968 | 14.14840 | 9374 ft | 283 kts | 221° |
| 2026-04-28 14:28 | 40.57467 | 14.13135 | 10225 ft | 288 kts | 221° |
| 2026-04-28 14:28 | 40.55887 | 14.11345 | 10575 ft | 312 kts | 221° |
| 2026-04-28 14:29 | 40.54204 | 14.09444 | 11116 ft | 324 kts | 221° |
| 2026-04-28 14:29 | 40.52476 | 14.07487 | 11871 ft | 330 kts | 221° |
| 2026-04-28 14:29 | 40.50835 | 14.05363 | 12642 ft | 334 kts | 232° |
| 2026-04-28 14:29 | 40.49658 | 14.02731 | 13415 ft | 337 kts | 248° |
| 2026-04-28 14:30 | 40.48853 | 13.99873 | 14165 ft | 340 kts | 250° |
| 2026-04-28 14:30 | 40.48035 | 13.96942 | 14859 ft | 343 kts | 250° |
| 2026-04-28 14:30 | 40.47201 | 13.93986 | 15541 ft | 347 kts | 250° |
| 2026-04-28 14:30 | 40.46355 | 13.91003 | 16215 ft | 350 kts | 250° |
| 2026-04-28 14:31 | 40.45499 | 13.87988 | 16888 ft | 354 kts | 250° |
| 2026-04-28 14:31 | 40.44636 | 13.84941 | 17551 ft | 358 kts | 250° |
| 2026-04-28 14:31 | 40.43760 | 13.81856 | 18182 ft | 363 kts | 249° |
| 2026-04-28 14:31 | 40.42872 | 13.78736 | 18766 ft | 367 kts | 249° |
| 2026-04-28 14:32 | 40.41975 | 13.75580 | 19353 ft | 370 kts | 250° |
| 2026-04-28 14:32 | 40.41091 | 13.72392 | 19949 ft | 373 kts | 250° |
| 2026-04-28 14:32 | 40.40216 | 13.69171 | 20535 ft | 376 kts | 250° |
| 2026-04-28 14:32 | 40.39342 | 13.65919 | 21116 ft | 380 kts | 251° |
| 2026-04-28 14:33 | 40.38459 | 13.62633 | 21697 ft | 383 kts | 251° |
| 2026-04-28 14:33 | 40.37560 | 13.59323 | 22278 ft | 386 kts | 250° |
| 2026-04-28 14:33 | 40.36645 | 13.55995 | 22848 ft | 390 kts | 250° |
| 2026-04-28 14:33 | 40.35720 | 13.52644 | 23420 ft | 393 kts | 250° |
| 2026-04-28 14:34 | 40.33843 | 13.45853 | 24380 ft | 399 kts | 250° |
| 2026-04-28 14:34 | 40.32895 | 13.42413 | 24795 ft | 403 kts | 250° |
| 2026-04-28 14:34 | 40.31939 | 13.38943 | 25241 ft | 406 kts | 251° |
| 2026-04-28 14:35 | 40.30977 | 13.35454 | 25694 ft | 408 kts | 251° |
| 2026-04-28 14:35 | 40.30253 | 13.31895 | 26123 ft | 410 kts | 261° |
| 2026-04-28 14:35 | 40.30005 | 13.28175 | 26555 ft | 411 kts | 271° |
| 2026-04-28 14:35 | 40.30180 | 13.24428 | 26994 ft | 413 kts | 275° |
| 2026-04-28 14:36 | 40.30412 | 13.20671 | 27427 ft | 415 kts | 275° |
| 2026-04-28 14:36 | 40.30639 | 13.16893 | 27855 ft | 417 kts | 275° |
| 2026-04-28 14:36 | 40.30862 | 13.13100 | 28275 ft | 419 kts | 275° |
| 2026-04-28 14:36 | 40.31079 | 13.09283 | 28719 ft | 421 kts | 275° |
| 2026-04-28 14:37 | 40.31294 | 13.05446 | 29145 ft | 423 kts | 275° |
| 2026-04-28 14:37 | 40.31510 | 13.01590 | 29553 ft | 425 kts | 275° |
| 2026-04-28 14:37 | 40.31730 | 12.97717 | 29955 ft | 427 kts | 276° |
| 2026-04-28 14:37 | 40.31952 | 12.93824 | 30320 ft | 429 kts | 276° |
| 2026-04-28 14:38 | 40.32180 | 12.89916 | 30659 ft | 431 kts | 276° |
| 2026-04-28 14:38 | 40.32465 | 12.86005 | 31004 ft | 432 kts | 277° |
| 2026-04-28 14:38 | 40.32807 | 12.82096 | 31347 ft | 433 kts | 278° |
| 2026-04-28 14:38 | 40.33178 | 12.78176 | 31682 ft | 434 kts | 278° |
| 2026-04-28 14:39 | 40.33551 | 12.74314 | 32114 ft | 432 kts | 278° |
| 2026-04-28 14:39 | 40.33921 | 12.70415 | 32622 ft | 429 kts | 278° |
| 2026-04-28 14:39 | 40.34279 | 12.66544 | 33121 ft | 426 kts | 278° |
| 2026-04-28 14:39 | 40.34624 | 12.62694 | 33620 ft | 423 kts | 277° |
| 2026-04-28 14:40 | 40.34957 | 12.58866 | 34121 ft | 421 kts | 277° |
| 2026-04-28 14:40 | 40.35172 | 12.56350 | 34393 ft | 419 kts | 277° |
| 2026-04-28 14:40 | 40.35598 | 12.51333 | 34923 ft | 416 kts | 277° |
| 2026-04-28 14:40 | 40.35918 | 12.47565 | 35064 ft | 415 kts | 277° |
| 2026-04-28 14:41 | 40.36234 | 12.43841 | 35095 ft | 406 kts | 277° |
| 2026-04-28 14:41 | 40.36853 | 12.36564 | 35095 ft | 399 kts | 277° |
| 2026-04-28 14:42 | 40.37463 | 12.29347 | 35095 ft | 397 kts | 277° |
| 2026-04-28 14:42 | 40.38268 | 12.22298 | 35084 ft | 377 kts | 291° |
| 2026-04-28 14:42 | 40.39599 | 12.19490 | 35081 ft | 364 kts | 315° |
| 2026-04-28 14:43 | 40.41637 | 12.17585 | 35090 ft | 360 kts | 326° |
| 2026-04-28 14:43 | 40.43552 | 12.15543 | 35085 ft | 352 kts | 305° |
| 2026-04-28 14:43 | 40.44585 | 12.12684 | 35084 ft | 349 kts | 279° |
| 2026-04-28 14:43 | 40.44644 | 12.09501 | 35087 ft | 351 kts | 268° |
| 2026-04-28 14:44 | 40.44537 | 12.06295 | 35086 ft | 352 kts | 270° |
| 2026-04-28 14:44 | 40.44668 | 11.99882 | 35083 ft | 351 kts | 275° |
| 2026-04-28 14:45 | 40.45132 | 11.93512 | 35082 ft | 350 kts | 277° |
| 2026-04-28 14:45 | 40.45667 | 11.87195 | 35082 ft | 350 kts | 277° |
| 2026-04-28 14:46 | 40.46171 | 11.80827 | 35084 ft | 350 kts | 276° |
| 2026-04-28 14:46 | 40.46645 | 11.74456 | 35081 ft | 350 kts | 276° |
| 2026-04-28 14:47 | 40.47114 | 11.68088 | 35082 ft | 350 kts | 276° |
| 2026-04-28 14:47 | 40.47581 | 11.61724 | 35082 ft | 350 kts | 276° |
| 2026-04-28 14:48 | 40.48046 | 11.55357 | 35079 ft | 350 kts | 276° |
| 2026-04-28 14:48 | 40.48504 | 11.48990 | 35079 ft | 350 kts | 276° |
| 2026-04-28 14:49 | 40.48957 | 11.42624 | 35080 ft | 350 kts | 276° |
| 2026-04-28 14:49 | 40.49401 | 11.36297 | 35080 ft | 350 kts | 276° |
| 2026-04-28 14:50 | 40.49848 | 11.29926 | 35079 ft | 349 kts | 276° |
| 2026-04-28 14:50 | 40.50289 | 11.23576 | 35075 ft | 349 kts | 276° |
| 2026-04-28 14:51 | 40.50729 | 11.17229 | 35075 ft | 349 kts | 276° |
| 2026-04-28 14:51 | 40.51167 | 11.10882 | 35075 ft | 349 kts | 276° |
| 2026-04-28 14:52 | 40.51607 | 11.04535 | 35075 ft | 349 kts | 276° |
| 2026-04-28 14:52 | 40.52036 | 10.98189 | 35075 ft | 349 kts | 275° |
| 2026-04-28 14:53 | 40.52458 | 10.91840 | 35075 ft | 349 kts | 275° |
| 2026-04-28 14:53 | 40.52882 | 10.85491 | 35072 ft | 349 kts | 275° |
| 2026-04-28 14:54 | 40.53304 | 10.79142 | 35073 ft | 349 kts | 275° |
| 2026-04-28 14:54 | 40.53710 | 10.72834 | 35073 ft | 349 kts | 275° |
| 2026-04-28 14:55 | 40.54119 | 10.66480 | 35070 ft | 349 kts | 275° |
| 2026-04-28 14:55 | 40.54526 | 10.60125 | 35069 ft | 349 kts | 275° |
| 2026-04-28 14:56 | 40.54935 | 10.53767 | 35067 ft | 349 kts | 275° |
| 2026-04-28 14:56 | 40.55339 | 10.47363 | 35067 ft | 349 kts | 275° |
| 2026-04-28 14:57 | 40.55739 | 10.41043 | 35064 ft | 349 kts | 275° |
| 2026-04-28 14:57 | 40.56142 | 10.34675 | 35064 ft | 349 kts | 275° |
| 2026-04-28 14:58 | 40.56531 | 10.28303 | 35064 ft | 349 kts | 275° |
| 2026-04-28 14:58 | 40.56916 | 10.21937 | 35059 ft | 349 kts | 275° |
| 2026-04-28 14:59 | 40.57304 | 10.15561 | 35058 ft | 350 kts | 275° |
| 2026-04-28 14:59 | 40.57689 | 10.09173 | 35056 ft | 350 kts | 275° |
| 2026-04-28 15:00 | 40.58072 | 10.02782 | 35055 ft | 350 kts | 275° |
| 2026-04-28 15:00 | 40.58445 | 9.96387 | 35050 ft | 350 kts | 275° |
| 2026-04-28 15:01 | 40.58809 | 9.90035 | 35050 ft | 350 kts | 275° |
| 2026-04-28 15:01 | 40.59177 | 9.83637 | 35050 ft | 351 kts | 275° |
| 2026-04-28 15:02 | 40.59545 | 9.77214 | 35042 ft | 352 kts | 274° |
| 2026-04-28 15:02 | 40.59911 | 9.70783 | 35042 ft | 352 kts | 274° |
| 2026-04-28 15:03 | 40.60269 | 9.64357 | 35030 ft | 352 kts | 274° |
| 2026-04-28 15:03 | 40.60625 | 9.57929 | 35030 ft | 352 kts | 274° |
| 2026-04-28 15:04 | 40.60978 | 9.51492 | 35018 ft | 352 kts | 274° |
| 2026-04-28 15:04 | 40.61328 | 9.45063 | 35018 ft | 353 kts | 274° |
| 2026-04-28 15:05 | 40.61674 | 9.38649 | 35009 ft | 354 kts | 274° |
| 2026-04-28 15:05 | 40.62014 | 9.32178 | 35009 ft | 354 kts | 274° |
| 2026-04-28 15:06 | 40.62324 | 9.25700 | 35030 ft | 355 kts | 274° |
| 2026-04-28 15:06 | 40.62631 | 9.19222 | 35026 ft | 355 kts | 274° |
| 2026-04-28 15:07 | 40.63161 | 9.12783 | 35023 ft | 354 kts | 278° |
| 2026-04-28 15:07 | 40.63946 | 9.06392 | 35023 ft | 354 kts | 279° |
| 2026-04-28 15:08 | 40.64757 | 8.99977 | 35022 ft | 355 kts | 279° |
| 2026-04-28 15:08 | 40.65543 | 8.93553 | 35021 ft | 355 kts | 278° |
| 2026-04-28 15:09 | 40.66303 | 8.87156 | 35023 ft | 355 kts | 278° |
| 2026-04-28 15:09 | 40.67057 | 8.80726 | 35025 ft | 355 kts | 278° |
| 2026-04-28 15:10 | 40.67809 | 8.74285 | 35024 ft | 355 kts | 278° |
| 2026-04-28 15:10 | 40.68568 | 8.67836 | 35025 ft | 357 kts | 278° |
| 2026-04-28 15:11 | 40.69330 | 8.61355 | 35025 ft | 358 kts | 278° |
| 2026-04-28 15:11 | 40.70074 | 8.54909 | 35025 ft | 358 kts | 278° |
| 2026-04-28 15:12 | 40.70821 | 8.48416 | 35034 ft | 358 kts | 278° |
| 2026-04-28 15:12 | 40.71566 | 8.41921 | 35006 ft | 358 kts | 278° |
| 2026-04-28 15:13 | 40.72313 | 8.35420 | 35004 ft | 358 kts | 278° |
| 2026-04-28 15:13 | 40.73053 | 8.28910 | 35004 ft | 360 kts | 277° |
| 2026-04-28 15:14 | 40.73793 | 8.22382 | 35007 ft | 360 kts | 277° |
| 2026-04-28 15:14 | 40.74524 | 8.15896 | 35010 ft | 360 kts | 277° |
| 2026-04-28 15:15 | 40.75259 | 8.09357 | 35015 ft | 360 kts | 277° |
| 2026-04-28 15:15 | 40.75868 | 8.03925 | 35021 ft | 360 kts | 277° |
| 2026-04-28 15:16 | 40.76591 | 7.97392 | 35025 ft | 360 kts | 277° |
| 2026-04-28 15:16 | 40.77311 | 7.90829 | 35033 ft | 362 kts | 277° |
| 2026-04-28 15:17 | 40.78034 | 7.84251 | 35038 ft | 362 kts | 277° |
| 2026-04-28 15:17 | 40.78755 | 7.77678 | 35038 ft | 362 kts | 277° |
| 2026-04-28 15:18 | 40.79471 | 7.71097 | 35038 ft | 362 kts | 277° |
| 2026-04-28 15:18 | 40.80173 | 7.64553 | 35038 ft | 362 kts | 277° |
| 2026-04-28 15:19 | 40.80882 | 7.57958 | 35039 ft | 362 kts | 277° |
| 2026-04-28 15:19 | 40.81585 | 7.51354 | 35038 ft | 364 kts | 277° |
| 2026-04-28 15:20 | 40.82285 | 7.44738 | 35037 ft | 364 kts | 277° |
| 2026-04-28 15:20 | 40.82989 | 7.38116 | 35037 ft | 364 kts | 277° |
| 2026-04-28 15:21 | 40.83683 | 7.31499 | 35038 ft | 364 kts | 277° |
| 2026-04-28 15:21 | 40.84367 | 7.24927 | 35038 ft | 364 kts | 276° |
| 2026-04-28 15:22 | 40.85052 | 7.18308 | 35037 ft | 364 kts | 277° |
| 2026-04-28 15:22 | 40.85742 | 7.11684 | 35038 ft | 364 kts | 276° |
| 2026-04-28 15:23 | 40.86422 | 7.05054 | 35038 ft | 364 kts | 276° |
| 2026-04-28 15:23 | 40.87097 | 6.98422 | 35035 ft | 364 kts | 276° |
| 2026-04-28 15:24 | 40.87771 | 6.91783 | 35034 ft | 364 kts | 276° |
| 2026-04-28 15:24 | 40.88434 | 6.85195 | 35035 ft | 364 kts | 276° |
| 2026-04-28 15:25 | 40.89100 | 6.78559 | 35031 ft | 365 kts | 276° |
| 2026-04-28 15:25 | 40.89764 | 6.71931 | 35032 ft | 363 kts | 276° |
| 2026-04-28 15:26 | 40.90421 | 6.65300 | 35035 ft | 363 kts | 276° |
| 2026-04-28 15:26 | 40.91075 | 6.58677 | 35031 ft | 363 kts | 276° |
| 2026-04-28 15:27 | 40.91715 | 6.52090 | 35034 ft | 363 kts | 276° |
| 2026-04-28 15:27 | 40.92354 | 6.45458 | 35035 ft | 363 kts | 276° |
| 2026-04-28 15:28 | 40.92995 | 6.38820 | 35032 ft | 364 kts | 276° |
| 2026-04-28 15:28 | 40.93640 | 6.32180 | 35031 ft | 364 kts | 276° |
| 2026-04-28 15:29 | 40.94271 | 6.25545 | 35031 ft | 364 kts | 276° |
| 2026-04-28 15:29 | 40.94900 | 6.18908 | 35031 ft | 364 kts | 276° |
| 2026-04-28 15:30 | 40.95522 | 6.12302 | 35029 ft | 364 kts | 275° |
| 2026-04-28 15:30 | 40.96140 | 6.05660 | 35031 ft | 364 kts | 275° |
| 2026-04-28 15:31 | 40.96771 | 5.99011 | 35027 ft | 364 kts | 275° |
| 2026-04-28 15:31 | 40.97392 | 5.92356 | 35026 ft | 364 kts | 275° |
| 2026-04-28 15:32 | 40.98006 | 5.85694 | 35031 ft | 364 kts | 275° |
| 2026-04-28 15:32 | 40.98614 | 5.79024 | 35028 ft | 364 kts | 275° |
| 2026-04-28 15:33 | 40.99214 | 5.72369 | 35025 ft | 364 kts | 275° |
| 2026-04-28 15:33 | 40.99800 | 5.65715 | 35026 ft | 364 kts | 275° |
| 2026-04-28 15:34 | 41.00392 | 5.59087 | 35027 ft | 364 kts | 275° |
| 2026-04-28 15:34 | 41.00992 | 5.52433 | 35026 ft | 364 kts | 275° |
| 2026-04-28 15:35 | 41.01585 | 5.45778 | 35025 ft | 364 kts | 275° |
| 2026-04-28 15:35 | 41.02459 | 5.35782 | 35024 ft | 364 kts | 275° |
| 2026-04-28 15:36 | 41.03036 | 5.29115 | 35021 ft | 364 kts | 275° |
| 2026-04-28 15:36 | 41.03619 | 5.22450 | 35021 ft | 364 kts | 275° |
| 2026-04-28 15:37 | 41.04190 | 5.15794 | 35021 ft | 364 kts | 275° |
| 2026-04-28 15:37 | 41.04665 | 5.10259 | 35021 ft | 364 kts | 275° |
| 2026-04-28 15:38 | 41.05318 | 5.02510 | 35019 ft | 364 kts | 274° |
| 2026-04-28 15:38 | 41.05872 | 4.95847 | 35019 ft | 364 kts | 274° |
| 2026-04-28 15:39 | 41.06434 | 4.89151 | 34554 ft | 367 kts | 274° |
| 2026-04-28 15:39 | 41.06715 | 4.85797 | 34130 ft | 366 kts | 275° |
| 2026-04-28 15:39 | 41.06997 | 4.82440 | 33661 ft | 366 kts | 275° |
| 2026-04-28 15:40 | 41.07275 | 4.79091 | 33233 ft | 365 kts | 275° |
| 2026-04-28 15:40 | 41.07549 | 4.75752 | 32807 ft | 363 kts | 275° |
| 2026-04-28 15:40 | 41.07822 | 4.72421 | 32376 ft | 362 kts | 275° |
| 2026-04-28 15:40 | 41.08093 | 4.69109 | 31953 ft | 361 kts | 275° |
| 2026-04-28 15:41 | 41.08363 | 4.65799 | 31538 ft | 360 kts | 275° |
| 2026-04-28 15:41 | 41.08629 | 4.62508 | 31126 ft | 358 kts | 275° |
| 2026-04-28 15:41 | 41.08890 | 4.59273 | 30725 ft | 357 kts | 275° |
| 2026-04-28 15:41 | 41.09153 | 4.56001 | 30323 ft | 355 kts | 274° |
| 2026-04-28 15:42 | 41.09414 | 4.52749 | 29891 ft | 354 kts | 274° |
| 2026-04-28 15:42 | 41.09673 | 4.49512 | 29492 ft | 351 kts | 274° |
| 2026-04-28 15:42 | 41.09927 | 4.46315 | 29107 ft | 347 kts | 274° |
| 2026-04-28 15:42 | 41.10175 | 4.43157 | 28739 ft | 343 kts | 274° |
| 2026-04-28 15:43 | 41.10420 | 4.40033 | 28380 ft | 338 kts | 274° |
| 2026-04-28 15:43 | 41.10662 | 4.36950 | 28017 ft | 334 kts | 274° |
| 2026-04-28 15:43 | 41.10901 | 4.33904 | 27660 ft | 330 kts | 274° |
| 2026-04-28 15:43 | 41.11136 | 4.30896 | 27300 ft | 326 kts | 274° |
| 2026-04-28 15:44 | 41.11367 | 4.27922 | 26949 ft | 322 kts | 274° |
| 2026-04-28 15:44 | 41.11595 | 4.24979 | 26584 ft | 319 kts | 274° |
| 2026-04-28 15:44 | 41.11822 | 4.22064 | 26223 ft | 316 kts | 274° |
| 2026-04-28 15:44 | 41.12045 | 4.19175 | 25865 ft | 314 kts | 274° |
| 2026-04-28 15:45 | 41.12261 | 4.16339 | 25496 ft | 312 kts | 274° |
| 2026-04-28 15:45 | 41.12478 | 4.13484 | 25121 ft | 310 kts | 274° |
| 2026-04-28 15:45 | 41.12693 | 4.10642 | 24746 ft | 309 kts | 274° |
| 2026-04-28 15:45 | 41.12909 | 4.07803 | 24361 ft | 308 kts | 274° |
| 2026-04-28 15:46 | 41.13124 | 4.04980 | 23978 ft | 307 kts | 274° |
| 2026-04-28 15:46 | 41.13338 | 4.02160 | 23589 ft | 307 kts | 274° |
| 2026-04-28 15:46 | 41.13550 | 3.99343 | 23158 ft | 306 kts | 274° |
| 2026-04-28 15:46 | 41.13760 | 3.96539 | 22769 ft | 304 kts | 274° |
| 2026-04-28 15:47 | 41.13969 | 3.93760 | 22398 ft | 302 kts | 274° |
| 2026-04-28 15:47 | 41.14175 | 3.90998 | 22026 ft | 300 kts | 273° |
| 2026-04-28 15:47 | 41.14379 | 3.88250 | 21662 ft | 298 kts | 273° |
| 2026-04-28 15:47 | 41.14580 | 3.85519 | 21302 ft | 297 kts | 273° |
| 2026-04-28 15:48 | 41.14782 | 3.82798 | 20944 ft | 296 kts | 273° |
| 2026-04-28 15:48 | 41.14984 | 3.80088 | 20584 ft | 294 kts | 273° |
| 2026-04-28 15:48 | 41.15182 | 3.77386 | 20222 ft | 294 kts | 273° |
| 2026-04-28 15:48 | 41.15383 | 3.74693 | 19874 ft | 293 kts | 274° |
| 2026-04-28 15:49 | 41.15623 | 3.72049 | 19555 ft | 292 kts | 275° |
| 2026-04-28 15:49 | 41.15893 | 3.69385 | 19229 ft | 291 kts | 275° |
| 2026-04-28 15:49 | 41.16171 | 3.66736 | 18903 ft | 290 kts | 275° |
| 2026-04-28 15:49 | 41.16448 | 3.64090 | 18578 ft | 289 kts | 275° |
| 2026-04-28 15:50 | 41.16721 | 3.61453 | 18246 ft | 288 kts | 275° |
| 2026-04-28 15:50 | 41.16986 | 3.58819 | 17895 ft | 287 kts | 275° |
| 2026-04-28 15:50 | 41.17248 | 3.56201 | 17569 ft | 285 kts | 275° |
| 2026-04-28 15:50 | 41.17509 | 3.53599 | 17249 ft | 284 kts | 275° |
| 2026-04-28 15:51 | 41.17768 | 3.51015 | 16932 ft | 282 kts | 275° |
| 2026-04-28 15:51 | 41.18026 | 3.48438 | 16615 ft | 281 kts | 275° |
| 2026-04-28 15:51 | 41.18281 | 3.45873 | 16300 ft | 280 kts | 275° |
| 2026-04-28 15:51 | 41.18532 | 3.43309 | 15985 ft | 279 kts | 275° |
| 2026-04-28 15:52 | 41.18782 | 3.40751 | 15675 ft | 279 kts | 275° |
| 2026-04-28 15:52 | 41.19030 | 3.38199 | 15358 ft | 279 kts | 275° |
| 2026-04-28 15:52 | 41.19276 | 3.35648 | 15042 ft | 279 kts | 275° |
| 2026-04-28 15:52 | 41.19523 | 3.33094 | 14729 ft | 279 kts | 275° |
| 2026-04-28 15:53 | 41.19769 | 3.30545 | 14419 ft | 279 kts | 275° |
| 2026-04-28 15:53 | 41.20014 | 3.27993 | 14103 ft | 279 kts | 275° |
| 2026-04-28 15:53 | 41.20258 | 3.25438 | 13789 ft | 279 kts | 275° |
| 2026-04-28 15:53 | 41.20504 | 3.22878 | 13447 ft | 279 kts | 275° |
| 2026-04-28 15:54 | 41.20750 | 3.20326 | 13127 ft | 277 kts | 275° |
| 2026-04-28 15:54 | 41.20992 | 3.17786 | 12816 ft | 276 kts | 275° |
| 2026-04-28 15:54 | 41.21227 | 3.15263 | 12507 ft | 275 kts | 275° |
| 2026-04-28 15:54 | 41.21455 | 3.12752 | 12198 ft | 273 kts | 275° |
| 2026-04-28 15:55 | 41.21677 | 3.10253 | 11893 ft | 272 kts | 275° |
| 2026-04-28 15:55 | 41.21894 | 3.07790 | 11591 ft | 271 kts | 275° |
| 2026-04-28 15:55 | 41.22111 | 3.05316 | 11289 ft | 269 kts | 275° |
| 2026-04-28 15:55 | 41.22325 | 3.02856 | 11037 ft | 265 kts | 275° |
| 2026-04-28 15:56 | 41.22537 | 3.00467 | 10980 ft | 253 kts | 275° |
| 2026-04-28 15:56 | 41.22672 | 2.98957 | 10984 ft | 244 kts | 275° |
| 2026-04-28 15:56 | 41.22931 | 2.96024 | 10987 ft | 236 kts | 275° |
| 2026-04-28 15:56 | 41.23122 | 2.93853 | 10988 ft | 236 kts | 275° |
| 2026-04-28 15:57 | 41.23311 | 2.91694 | 10988 ft | 235 kts | 275° |
| 2026-04-28 15:57 | 41.23497 | 2.89532 | 10982 ft | 235 kts | 275° |
| 2026-04-28 15:57 | 41.23684 | 2.87369 | 10983 ft | 236 kts | 275° |
| 2026-04-28 15:57 | 41.23871 | 2.85237 | 10982 ft | 236 kts | 276° |
| 2026-04-28 15:58 | 41.24442 | 2.83204 | 10976 ft | 239 kts | 306° |
| 2026-04-28 15:58 | 41.25640 | 2.81677 | 10727 ft | 240 kts | 320° |
| 2026-04-28 15:58 | 41.26971 | 2.80338 | 10407 ft | 240 kts | 322° |
| 2026-04-28 15:58 | 41.28320 | 2.79022 | 10105 ft | 242 kts | 322° |
| 2026-04-28 15:59 | 41.29679 | 2.77693 | 9744 ft | 244 kts | 322° |
| 2026-04-28 15:59 | 41.30584 | 2.76806 | 9482 ft | 245 kts | 322° |
| 2026-04-28 15:59 | 41.32349 | 2.74887 | 8960 ft | 245 kts | 307° |
| 2026-04-28 15:59 | 41.33108 | 2.72897 | 8581 ft | 242 kts | 281° |
| 2026-04-28 16:00 | 41.33407 | 2.70698 | 8199 ft | 242 kts | 277° |
| 2026-04-28 16:00 | 41.33687 | 2.68487 | 7825 ft | 243 kts | 277° |
| 2026-04-28 16:00 | 41.33965 | 2.66269 | 7461 ft | 243 kts | 277° |
| 2026-04-28 16:00 | 41.34241 | 2.64045 | 7095 ft | 244 kts | 277° |
| 2026-04-28 16:01 | 41.34515 | 2.61839 | 6737 ft | 244 kts | 277° |
| 2026-04-28 16:01 | 41.34792 | 2.59607 | 6370 ft | 244 kts | 277° |
| 2026-04-28 16:01 | 41.35067 | 2.57391 | 5991 ft | 241 kts | 277° |
| 2026-04-28 16:01 | 41.35339 | 2.55203 | 5618 ft | 238 kts | 277° |
| 2026-04-28 16:02 | 41.35607 | 2.53046 | 5242 ft | 235 kts | 277° |
| 2026-04-28 16:02 | 41.35873 | 2.50905 | 4871 ft | 233 kts | 277° |
| 2026-04-28 16:02 | 41.36047 | 2.49498 | 4618 ft | 232 kts | 277° |
| 2026-04-28 16:02 | 41.36306 | 2.47385 | 4243 ft | 231 kts | 277° |
| 2026-04-28 16:03 | 41.36567 | 2.45273 | 3875 ft | 231 kts | 277° |
| 2026-04-28 16:03 | 41.36907 | 2.42515 | 3508 ft | 225 kts | 277° |
| 2026-04-28 16:03 | 41.37076 | 2.41133 | 3328 ft | 222 kts | 277° |
| 2026-04-28 16:03 | 41.37317 | 2.39143 | 3099 ft | 218 kts | 277° |
| 2026-04-28 16:04 | 41.37553 | 2.37196 | 3001 ft | 208 kts | 277° |
| 2026-04-28 16:04 | 41.37777 | 2.35339 | 3007 ft | 201 kts | 277° |
| 2026-04-28 16:04 | 41.37988 | 2.33512 | 3005 ft | 198 kts | 273° |
| 2026-04-28 16:04 | 41.37825 | 2.31723 | 3012 ft | 194 kts | 248° |
| 2026-04-28 16:05 | 41.37285 | 2.30082 | 3011 ft | 193 kts | 243° |
| 2026-04-28 16:05 | 41.36727 | 2.28442 | 2884 ft | 194 kts | 242° |
| 2026-04-28 16:05 | 41.36180 | 2.26831 | 2672 ft | 191 kts | 242° |
| 2026-04-28 16:05 | 41.35636 | 2.25232 | 2415 ft | 190 kts | 242° |
| 2026-04-28 16:06 | 41.35094 | 2.23638 | 2167 ft | 189 kts | 243° |
| 2026-04-28 16:06 | 41.34556 | 2.22056 | 1926 ft | 186 kts | 244° |
| 2026-04-28 16:06 | 41.34033 | 2.20519 | 1683 ft | 176 kts | 243° |
| 2026-04-28 16:06 | 41.33545 | 2.19085 | 1446 ft | 164 kts | 241° |
| 2026-04-28 16:07 | 41.33099 | 2.17773 | 1235 ft | 148 kts | 242° |
| 2026-04-28 16:07 | 41.32688 | 2.16568 | 1059 ft | 140 kts | 243° |
| 2026-04-28 16:07 | 41.31896 | 2.14248 | 684 ft | 135 kts | 243° |
| 2026-04-28 16:08 | 41.31517 | 2.13110 | 514 ft | 133 kts | 243° |
| 2026-04-28 16:08 | 41.31143 | 2.12004 | 319 ft | 129 kts | 244° |
| 2026-04-28 16:08 | 41.30769 | 2.10912 | 144 ft | 128 kts | 242° |
| 2026-04-28 16:09 | 41.30091 | 2.08969 | 17 ft | 82 kts | 245° |
| 2026-04-28 16:09 | 41.29939 | 2.08514 | 19 ft | 27 kts | 254° |
| 2026-04-28 16:09 | 41.29928 | 2.08310 | 19 ft | 22 kts | 273° |
| 2026-04-28 16:10 | 41.29938 | 2.08140 | 18 ft | 6 kts | 275° |
| 2026-04-28 16:10 | 41.29942 | 2.08090 | 18 ft | 4 kts | 275° |
| 2026-04-28 16:10 | 41.29979 | 2.08023 | 18 ft | 5 kts | 330° |
| 2026-04-28 16:11 | 41.29997 | 2.08013 | 18 ft | 2 kts | 340° |
| 2026-04-28 16:11 | 41.30045 | 2.07993 | 18 ft | 4 kts | 352° |
| 2026-04-28 16:12 | 41.30103 | 2.08069 | 18 ft | 11 kts | 60° |
| 2026-04-28 16:12 | 41.30135 | 2.08165 | 19 ft | 11 kts | 66° |
| 2026-04-28 16:13 | 41.30206 | 2.08365 | 20 ft | 13 kts | 65° |
| 2026-04-28 16:13 | 41.30261 | 2.08446 | 18 ft | 13 kts | 358° |
| 2026-04-28 16:13 | 41.30354 | 2.08399 | 19 ft | 4 kts | 334° |
| 2026-04-28 16:14 | 41.30398 | 2.08433 | 18 ft | 5 kts | 64° |
| 2026-04-28 16:14 | 41.30404 | 2.08452 | 20 ft | 0 kts | 66° |
| 2026-04-28 16:16 | 41.30404 | 2.08451 | 20 ft | 0 kts | 66° |